Time;durP1;ratioP1;P1;durP2;ratioP2;P2;SDS_P1;SDS_P2;PMS_P1;PMS_P2;Temp;Humidity;BMP_temperature;BMP_pressure;BME280_temperature;BME280_humidity;BME280_pressure;Samples;Min_cycle;Max_cycle;Signal;HPM_P1;HPM_P2
2023/08/31 00:02:10;;;;;;;6.90;5.18;;;23.50;51.20;;;;;;5029697;28;20025;-55
2023/08/31 00:04:36;;;;;;;9.80;5.13;;;23.50;51.30;;;;;;5029792;28;20057;-53
2023/08/31 00:07:01;;;;;;;11.60;5.55;;;23.50;51.20;;;;;;5030001;28;20026;-53
2023/08/31 00:09:27;;;;;;;10.35;5.75;;;23.50;51.30;;;;;;5029476;28;20038;-51
2023/08/31 00:11:53;;;;;;;8.40;5.20;;;23.50;51.40;;;;;;5030336;28;20036;-54
2023/08/31 00:14:18;;;;;;;9.18;5.45;;;23.40;51.40;;;;;;5029087;28;20041;-55
2023/08/31 00:16:47;;;;;;;8.45;6.22;;;23.40;51.30;;;;;;5029944;28;20082;-53
2023/08/31 00:19:14;;;;;;;9.07;5.38;;;23.40;51.10;;;;;;5029906;28;20037;-54
2023/08/31 00:21:40;;;;;;;13.88;5.95;;;23.40;51.10;;;;;;5029569;28;20025;-54
2023/08/31 00:24:07;;;;;;;10.25;5.30;;;23.30;51.00;;;;;;5029613;28;20090;-53
2023/08/31 00:26:33;;;;;;;7.80;5.35;;;23.30;51.00;;;;;;5030672;28;20030;-54
2023/08/31 00:28:58;;;;;;;10.23;5.68;;;23.30;50.90;;;;;;5030076;28;20065;-52
2023/08/31 00:31:24;;;;;;;10.20;5.90;;;23.30;50.90;;;;;;5030953;28;20036;-54
2023/08/31 00:33:50;;;;;;;9.77;5.72;;;23.30;51.20;;;;;;5030083;28;20034;-53
2023/08/31 00:36:18;;;;;;;6.88;5.35;;;23.30;51.10;;;;;;5030453;28;20056;-54
2023/08/31 00:38:43;;;;;;;7.20;5.47;;;23.30;51.00;;;;;;5031039;28;20022;-54
2023/08/31 00:41:09;;;;;;;7.55;5.63;;;23.30;50.90;;;;;;5030699;28;20042;-53
2023/08/31 00:43:35;;;;;;;6.45;4.78;;;23.20;50.70;;;;;;5030904;28;20030;-54
2023/08/31 00:46:00;;;;;;;9.57;5.22;;;23.20;50.60;;;;;;5031361;28;20030;-52
2023/08/31 00:48:26;;;;;;;8.43;5.40;;;23.20;50.50;;;;;;5031441;28;20030;-53
2023/08/31 00:50:52;;;;;;;8.25;4.45;;;23.20;50.40;;;;;;5031505;28;20072;-54
2023/08/31 00:53:18;;;;;;;8.18;4.85;;;23.20;50.40;;;;;;5031876;28;20042;-53
2023/08/31 00:55:47;;;;;;;10.35;5.00;;;23.20;50.40;;;;;;5031621;28;20057;-53
2023/08/31 00:58:13;;;;;;;8.32;4.82;;;23.10;50.90;;;;;;5031597;28;20049;-53
2023/08/31 01:00:48;;;;;;;8.35;4.68;;;23.10;51.20;;;;;;5031602;28;20037;-53
2023/08/31 01:03:40;;;;;;;7.05;4.47;;;23.10;50.80;;;;;;5031969;28;20028;-52
2023/08/31 01:06:25;;;;;;;9.45;4.38;;;23.00;50.40;;;;;;5031456;28;20085;-54
2023/08/31 01:09:07;;;;;;;6.85;4.50;;;23.00;50.30;;;;;;5032056;28;20401;-53
2023/08/31 01:11:54;;;;;;;8.35;4.82;;;23.00;50.20;;;;;;5030827;28;20060;-54
2023/08/31 01:14:24;;;;;;;6.47;4.25;;;22.90;50.20;;;;;;5031522;28;20014;-53
2023/08/31 01:16:52;;;;;;;9.10;4.65;;;22.80;50.00;;;;;;5031022;28;20042;-53
2023/08/31 01:19:43;;;;;;;7.80;4.65;;;22.80;50.10;;;;;;5031732;28;20022;-53
2023/08/31 01:22:16;;;;;;;8.95;4.82;;;22.80;50.20;;;;;;5030880;28;20026;-54
2023/08/31 01:24:42;;;;;;;7.63;4.80;;;22.80;50.20;;;;;;5030306;28;20017;-54
2023/08/31 01:27:09;;;;;;;7.07;4.22;;;22.70;50.40;;;;;;5031115;28;20053;-55
2023/08/31 01:29:34;;;;;;;7.68;4.53;;;22.70;50.70;;;;;;5030828;28;20033;-55
2023/08/31 01:32:00;;;;;;;7.03;4.53;;;22.70;51.20;;;;;;5029946;28;20033;-53
2023/08/31 01:34:26;;;;;;;10.95;4.53;;;22.70;51.40;;;;;;5030862;28;20037;-52
2023/08/31 01:36:58;;;;;;;6.60;4.40;;;22.70;51.30;;;;;;5031361;28;20064;-53
2023/08/31 01:39:38;;;;;;;8.02;4.38;;;22.70;51.40;;;;;;5030878;28;20030;-54
2023/08/31 01:42:06;;;;;;;8.13;4.57;;;22.70;50.70;;;;;;5031463;28;20034;-53
2023/08/31 01:44:35;;;;;;;8.60;4.50;;;22.60;50.70;;;;;;5030849;28;20022;-54
2023/08/31 01:47:08;;;;;;;6.45;4.60;;;22.60;51.50;;;;;;5030803;28;20022;-54
2023/08/31 01:49:40;;;;;;;7.45;5.05;;;22.50;51.90;;;;;;5030565;28;20025;-54
2023/08/31 01:52:07;;;;;;;7.10;4.53;;;22.50;52.20;;;;;;5031149;28;20025;-52
2023/08/31 01:54:33;;;;;;;7.10;4.72;;;22.50;52.60;;;;;;5029510;28;20101;-53
2023/08/31 01:56:59;;;;;;;7.13;4.28;;;22.50;52.70;;;;;;5029195;28;20136;-53
2023/08/31 01:59:24;;;;;;;7.07;4.25;;;22.40;53.10;;;;;;5029436;28;20030;-53
2023/08/31 02:01:50;;;;;;;8.10;4.90;;;22.40;53.20;;;;;;5030999;28;20078;-53
2023/08/31 02:04:16;;;;;;;7.32;5.25;;;22.30;52.50;;;;;;5034471;28;20026;-52
2023/08/31 02:06:42;;;;;;;7.85;4.80;;;22.30;52.80;;;;;;5035114;28;20022;-52
2023/08/31 02:09:08;;;;;;;6.72;4.40;;;22.30;52.60;;;;;;5034512;28;20050;-53
2023/08/31 02:11:37;;;;;;;7.32;4.18;;;22.20;52.00;;;;;;5035083;28;20029;-53
2023/08/31 02:14:04;;;;;;;8.07;4.53;;;22.20;51.60;;;;;;5035368;28;20048;-51
2023/08/31 02:16:31;;;;;;;5.88;4.35;;;22.20;51.30;;;;;;5034714;28;20022;-54
2023/08/31 02:18:57;;;;;;;6.45;4.35;;;22.20;51.90;;;;;;5034705;28;20485;-52
2023/08/31 02:21:23;;;;;;;7.35;4.65;;;22.20;52.30;;;;;;5034352;28;20030;-52
2023/08/31 02:23:48;;;;;;;9.63;5.03;;;22.10;52.00;;;;;;5034889;28;20037;-53
2023/08/31 02:26:14;;;;;;;6.50;4.50;;;22.10;52.30;;;;;;5035018;28;20416;-53
2023/08/31 02:28:40;;;;;;;10.50;4.85;;;22.10;52.30;;;;;;5034769;28;20057;-52
2023/08/31 02:31:06;;;;;;;7.57;5.22;;;22.10;51.60;;;;;;5034730;28;20022;-53
2023/08/31 02:33:31;;;;;;;11.27;4.30;;;22.10;51.20;;;;;;5034863;28;20053;-54
2023/08/31 02:35:57;;;;;;;9.70;5.15;;;22.10;51.40;;;;;;5034857;28;20026;-54
2023/08/31 02:38:23;;;;;;;7.40;5.30;;;22.00;51.50;;;;;;5034562;28;20026;-55
2023/08/31 02:40:49;;;;;;;9.75;5.85;;;22.00;52.00;;;;;;5034889;28;20121;-51
2023/08/31 02:43:15;;;;;;;7.90;4.93;;;22.00;51.90;;;;;;5034984;28;20030;-54
2023/08/31 02:45:41;;;;;;;10.10;4.97;;;22.00;52.00;;;;;;5035181;28;20052;-52
2023/08/31 02:48:07;;;;;;;9.63;4.88;;;22.00;52.30;;;;;;5034830;28;20021;-54
2023/08/31 02:50:34;;;;;;;9.40;4.80;;;22.00;52.20;;;;;;5034918;28;20017;-51
2023/08/31 02:53:00;;;;;;;7.22;5.43;;;22.00;52.70;;;;;;5035184;28;20030;-50
2023/08/31 02:55:26;;;;;;;6.68;4.75;;;22.00;52.70;;;;;;5034193;28;20034;-54
2023/08/31 02:57:51;;;;;;;10.02;4.72;;;21.90;52.60;;;;;;5034382;28;20045;-51
2023/08/31 03:00:21;;;;;;;7.63;4.43;;;21.90;52.90;;;;;;5034271;28;20040;-52
2023/08/31 03:02:47;;;;;;;9.88;5.13;;;22.00;53.20;;;;;;5033986;28;20037;-53
2023/08/31 03:05:13;;;;;;;8.07;6.00;;;22.00;53.30;;;;;;5034313;28;20105;-51
2023/08/31 03:07:39;;;;;;;11.18;6.68;;;22.00;53.30;;;;;;5034504;28;20030;-52
2023/08/31 03:10:05;;;;;;;9.82;6.40;;;22.00;54.00;;;;;;5033949;28;20041;-55
2023/08/31 03:12:30;;;;;;;11.45;6.38;;;22.00;53.00;;;;;;5034134;28;20026;-54
2023/08/31 03:14:56;;;;;;;13.63;6.00;;;22.00;52.80;;;;;;5034803;28;20033;-52
2023/08/31 03:17:22;;;;;;;10.25;5.90;;;22.00;52.50;;;;;;5034180;28;20034;-52
2023/08/31 03:19:47;;;;;;;8.60;5.18;;;22.00;52.20;;;;;;5034374;28;20032;-54
2023/08/31 03:22:13;;;;;;;9.15;5.47;;;22.10;51.70;;;;;;5034944;28;20078;-53
2023/08/31 03:24:39;;;;;;;9.30;5.35;;;22.10;51.30;;;;;;5034147;28;20033;-52
2023/08/31 03:27:04;;;;;;;9.98;5.07;;;22.00;50.70;;;;;;5034267;28;20102;-52
2023/08/31 03:29:31;;;;;;;9.60;4.72;;;22.10;50.40;;;;;;5033852;28;20118;-52
2023/08/31 03:31:57;;;;;;;8.68;4.70;;;22.10;50.50;;;;;;5033753;28;20037;-52
2023/08/31 03:34:23;;;;;;;8.50;5.10;;;22.10;50.10;;;;;;5034053;28;20040;-51
2023/08/31 03:36:50;;;;;;;7.72;4.90;;;22.10;50.00;;;;;;5033506;28;20030;-54
2023/08/31 03:39:16;;;;;;;9.48;4.72;;;22.10;50.30;;;;;;5033842;28;20099;-52
2023/08/31 03:41:42;;;;;;;9.32;5.50;;;22.20;50.30;;;;;;5033612;28;20037;-54
2023/08/31 03:44:07;;;;;;;11.15;5.85;;;22.20;50.10;;;;;;5033437;28;20034;-52
2023/08/31 03:46:33;;;;;;;10.38;5.22;;;22.20;50.20;;;;;;5033618;28;20034;-54
2023/08/31 03:48:59;;;;;;;11.05;6.05;;;22.30;50.20;;;;;;5034235;28;20006;-51
2023/08/31 03:51:24;;;;;;;11.43;5.82;;;22.30;49.90;;;;;;5033251;28;20411;-53
2023/08/31 03:53:50;;;;;;;9.60;5.55;;;22.30;49.90;;;;;;5033028;28;20029;-53
2023/08/31 03:56:15;;;;;;;10.88;5.88;;;22.40;49.90;;;;;;5033701;28;20032;-54
2023/08/31 03:58:41;;;;;;;12.35;5.82;;;22.40;49.80;;;;;;5033939;28;20044;-53
2023/08/31 04:01:07;;;;;;;10.75;5.75;;;22.40;49.70;;;;;;5033195;28;20026;-52
2023/08/31 04:03:33;;;;;;;11.05;5.72;;;22.40;49.60;;;;;;5033680;28;20018;-54
2023/08/31 04:05:58;;;;;;;8.90;5.93;;;22.50;49.60;;;;;;5033583;28;20040;-51
2023/08/31 04:08:24;;;;;;;7.80;5.45;;;22.50;49.40;;;;;;5033503;28;20030;-54
2023/08/31 04:10:50;;;;;;;7.80;4.78;;;22.60;49.30;;;;;;5032724;28;20034;-52
2023/08/31 04:13:15;;;;;;;8.93;5.90;;;22.60;49.20;;;;;;5032396;28;20025;-51
2023/08/31 04:15:41;;;;;;;6.65;5.10;;;22.60;49.40;;;;;;5031759;28;20041;-53
2023/08/31 04:18:07;;;;;;;9.20;5.78;;;22.70;49.70;;;;;;5032314;28;20038;-53
2023/08/31 04:20:33;;;;;;;9.13;5.53;;;22.70;49.90;;;;;;5032696;28;20036;-52
2023/08/31 04:22:58;;;;;;;10.15;5.88;;;22.70;50.10;;;;;;5032844;28;20077;-52
2023/08/31 04:25:24;;;;;;;8.35;5.55;;;22.80;50.50;;;;;;5032283;28;20030;-54
2023/08/31 04:27:50;;;;;;;10.20;5.95;;;22.80;50.60;;;;;;5032032;28;20129;-52
2023/08/31 04:30:15;;;;;;;8.15;5.60;;;22.90;50.90;;;;;;5032732;28;20085;-53
2023/08/31 04:32:42;;;;;;;11.38;4.80;;;22.90;51.10;;;;;;5033447;28;20033;-51
2023/08/31 04:35:08;;;;;;;9.98;5.40;;;23.00;50.60;;;;;;5033145;28;20041;-54
2023/08/31 04:37:33;;;;;;;10.02;4.93;;;23.00;50.50;;;;;;5032329;28;20022;-53
2023/08/31 04:39:59;;;;;;;9.80;5.25;;;23.00;50.20;;;;;;5031407;28;20086;-53
2023/08/31 04:42:25;;;;;;;10.20;5.28;;;23.10;50.30;;;;;;5032672;28;20022;-53
2023/08/31 04:44:51;;;;;;;10.88;5.45;;;23.10;50.20;;;;;;5032224;28;20030;-51
2023/08/31 04:47:16;;;;;;;7.93;5.25;;;23.10;50.10;;;;;;5031779;28;20037;-52
2023/08/31 04:49:42;;;;;;;12.32;5.88;;;23.20;49.90;;;;;;5032963;28;20032;-52
2023/08/31 04:52:08;;;;;;;8.48;5.60;;;23.10;49.80;;;;;;5032872;28;20029;-54
2023/08/31 04:54:34;;;;;;;6.85;4.97;;;23.10;49.70;;;;;;5033540;28;20034;-51
2023/08/31 04:56:59;;;;;;;11.13;5.50;;;23.10;49.70;;;;;;5033963;28;20060;-53
2023/08/31 04:59:25;;;;;;;12.82;5.72;;;23.10;49.80;;;;;;5034079;28;20057;-54
2023/08/31 05:01:50;;;;;;;11.80;5.90;;;23.20;49.60;;;;;;5033954;28;20017;-52
2023/08/31 05:04:16;;;;;;;11.05;5.88;;;23.20;49.50;;;;;;5033048;28;20030;-52
2023/08/31 05:06:42;;;;;;;8.13;5.60;;;23.30;49.40;;;;;;5033791;28;20099;-53
2023/08/31 05:09:08;;;;;;;10.25;5.40;;;23.30;49.40;;;;;;5033150;28;20037;-52
2023/08/31 05:11:33;;;;;;;9.80;5.75;;;23.40;49.40;;;;;;5032933;28;20025;-52
2023/08/31 05:13:59;;;;;;;9.05;5.68;;;23.40;49.60;;;;;;5024352;28;20054;-53
2023/08/31 05:16:24;;;;;;;11.93;6.03;;;23.50;49.80;;;;;;5033130;28;20034;-53
2023/08/31 05:18:50;;;;;;;11.30;6.38;;;23.70;50.00;;;;;;5032787;28;20105;-52
2023/08/31 05:21:16;;;;;;;10.57;6.80;;;23.90;48.90;;;;;;5033009;28;20037;-52
2023/08/31 05:23:42;;;;;;;11.80;6.57;;;24.00;48.50;;;;;;5032351;28;20022;-54
2023/08/31 05:26:08;;;;;;;10.27;6.38;;;24.10;48.40;;;;;;5032629;28;20037;-53
2023/08/31 05:28:33;;;;;;;11.20;6.70;;;24.20;48.40;;;;;;5064784;28;20053;-52
2023/08/31 05:31:01;;;;;;;12.60;6.65;;;24.20;48.00;;;;;;5031553;28;20086;-52
2023/08/31 05:33:28;;;;;;;10.52;6.22;;;24.20;47.60;;;;;;5031805;28;20052;-54
2023/08/31 05:35:54;;;;;;;11.93;5.47;;;24.30;47.00;;;;;;5032206;28;20042;-51
2023/08/31 05:38:20;;;;;;;9.23;6.40;;;24.20;46.70;;;;;;5034257;28;20030;-51
2023/08/31 05:40:46;;;;;;;12.50;5.97;;;24.30;46.80;;;;;;5034038;28;20036;-53
2023/08/31 05:43:15;;;;;;;12.27;6.18;;;24.40;46.80;;;;;;5036036;28;20021;-53
2023/08/31 05:45:41;;;;;;;13.32;7.03;;;24.50;46.70;;;;;;5035187;28;20026;-52
2023/08/31 05:48:08;;;;;;;11.30;6.10;;;24.60;46.70;;;;;;5033530;28;20022;-52
2023/08/31 05:50:33;;;;;;;8.23;5.82;;;24.70;46.70;;;;;;5033960;28;20049;-54
2023/08/31 05:52:59;;;;;;;8.98;6.32;;;24.70;46.80;;;;;;5034658;28;20038;-54
2023/08/31 05:55:25;;;;;;;11.73;6.38;;;24.70;46.80;;;;;;5028660;28;20034;-53
2023/08/31 05:57:50;;;;;;;9.38;5.97;;;24.70;46.80;;;;;;5034617;28;20029;-55
2023/08/31 06:00:18;;;;;;;14.68;5.85;;;24.70;46.90;;;;;;5033447;28;20022;-51
2023/08/31 06:02:46;;;;;;;10.35;6.10;;;24.70;47.30;;;;;;5032337;28;20018;-53
2023/08/31 06:05:13;;;;;;;11.25;6.53;;;24.70;47.50;;;;;;5030718;28;20022;-52
2023/08/31 06:07:39;;;;;;;12.25;6.57;;;24.60;47.60;;;;;;5029993;28;20033;-53
2023/08/31 06:10:06;;;;;;;9.02;5.82;;;24.60;47.70;;;;;;5032694;28;20056;-54
2023/08/31 06:12:31;;;;;;;11.63;5.75;;;24.60;47.70;;;;;;5033937;28;20025;-54
2023/08/31 06:14:58;;;;;;;11.02;6.32;;;24.60;47.90;;;;;;5035579;28;20029;-55
2023/08/31 06:17:24;;;;;;;9.45;6.13;;;24.60;47.90;;;;;;5034692;28;20038;-55
2023/08/31 06:19:49;;;;;;;10.68;5.90;;;24.60;47.80;;;;;;5034902;28;20026;-54
2023/08/31 06:22:15;;;;;;;12.35;5.95;;;24.60;48.00;;;;;;5036083;28;20034;-53
2023/08/31 06:24:42;;;;;;;9.00;6.45;;;24.60;48.20;;;;;;5035344;28;20048;-53
2023/08/31 06:27:07;;;;;;;13.07;6.28;;;24.70;48.60;;;;;;5032324;28;20107;-53
2023/08/31 06:29:33;;;;;;;14.23;7.25;;;24.70;48.80;;;;;;5033073;28;20053;-52
2023/08/31 06:31:59;;;;;;;11.98;7.57;;;24.80;49.20;;;;;;5034121;28;20041;-56
2023/08/31 06:34:24;;;;;;;14.93;8.43;;;24.80;49.80;;;;;;5033975;28;20056;-52
2023/08/31 06:36:50;;;;;;;18.00;9.23;;;24.90;50.40;;;;;;5032852;28;20038;-55
2023/08/31 06:39:15;;;;;;;13.30;8.40;;;24.90;50.80;;;;;;5033762;28;20022;-53
2023/08/31 06:41:41;;;;;;;11.15;7.45;;;25.00;51.50;;;;;;5033027;28;20069;-53
2023/08/31 06:44:07;;;;;;;14.05;8.27;;;25.00;51.80;;;;;;5032645;28;20021;-53
2023/08/31 06:46:37;;;;;;;16.02;7.30;;;25.10;52.10;;;;;;5030901;28;20098;-54
2023/08/31 06:49:06;;;;;;;10.60;7.30;;;25.10;52.20;;;;;;5032662;28;20038;-51
2023/08/31 06:51:33;;;;;;;11.40;6.93;;;25.10;52.60;;;;;;5034472;28;20029;-52
2023/08/31 06:54:05;;;;;;;11.65;7.03;;;25.10;52.60;;;;;;5033910;28;20086;-55
2023/08/31 06:56:34;;;;;;;10.25;6.97;;;25.20;52.90;;;;;;5033940;28;20013;-55
2023/08/31 06:59:00;;;;;;;13.07;6.70;;;25.20;53.00;;;;;;5033632;28;20021;-53
2023/08/31 07:01:27;;;;;;;13.07;6.80;;;25.30;53.10;;;;;;5030154;28;20038;-53
2023/08/31 07:03:53;;;;;;;13.65;7.13;;;25.30;53.30;;;;;;5026138;28;20026;-53
2023/08/31 07:06:19;;;;;;;12.43;6.68;;;25.40;53.30;;;;;;5025592;28;20022;-55
2023/08/31 07:08:47;;;;;;;10.95;6.93;;;25.40;53.20;;;;;;5023942;28;20469;-55
2023/08/31 07:11:14;;;;;;;9.80;6.93;;;25.50;53.50;;;;;;5022023;28;20046;-54
2023/08/31 07:13:40;;;;;;;13.30;6.55;;;25.50;53.50;;;;;;5024697;28;20022;-51
2023/08/31 07:16:06;;;;;;;10.93;6.88;;;25.60;53.80;;;;;;5021628;28;20022;-54
2023/08/31 07:18:31;;;;;;;11.85;6.53;;;25.60;53.70;;;;;;5023270;28;20015;-54
2023/08/31 07:20:57;;;;;;;11.10;7.78;;;25.70;53.40;;;;;;5020246;28;20026;-54
2023/08/31 07:23:23;;;;;;;10.38;6.88;;;25.70;53.20;;;;;;5027542;28;20132;-52
2023/08/31 07:25:49;;;;;;;11.73;6.82;;;25.70;53.40;;;;;;5032346;28;20025;-53
2023/08/31 07:28:15;;;;;;;12.20;6.40;;;25.70;53.60;;;;;;5027862;28;20046;-50
2023/08/31 07:30:40;;;;;;;23.27;6.75;;;25.70;54.20;;;;;;5013461;28;20034;-52
2023/08/31 07:33:07;;;;;;;10.65;6.53;;;25.70;54.50;;;;;;5023717;28;20061;-53
2023/08/31 07:35:32;;;;;;;11.50;6.57;;;25.70;54.60;;;;;;5032808;28;20029;-53
2023/08/31 07:37:58;;;;;;;8.75;6.28;;;25.60;54.70;;;;;;5032387;28;20037;-52
2023/08/31 07:40:25;;;;;;;12.93;6.38;;;25.60;54.90;;;;;;5015769;28;20057;-53
2023/08/31 07:42:51;;;;;;;8.90;5.80;;;25.60;55.10;;;;;;5016956;28;20032;-50
2023/08/31 07:45:17;;;;;;;12.68;6.07;;;25.60;55.00;;;;;;5033031;28;20025;-52
2023/08/31 07:47:42;;;;;;;11.45;6.50;;;25.60;55.10;;;;;;5028268;28;20022;-55
2023/08/31 07:50:09;;;;;;;9.80;6.13;;;25.60;55.30;;;;;;5022105;28;20021;-53
2023/08/31 07:52:34;;;;;;;9.27;5.82;;;25.60;55.40;;;;;;5025278;28;20045;-53
2023/08/31 07:55:01;;;;;;;9.40;5.68;;;25.60;55.40;;;;;;5021262;28;20034;-54
2023/08/31 07:57:27;;;;;;;9.25;6.10;;;25.60;55.40;;;;;;5024064;28;20026;-53
2023/08/31 07:59:53;;;;;;;11.10;5.80;;;25.70;55.60;;;;;;5024017;28;20061;-54
2023/08/31 08:02:18;;;;;;;10.00;7.10;;;25.70;55.70;;;;;;5021615;28;20029;-53
2023/08/31 08:04:46;;;;;;;10.95;6.18;;;25.70;55.70;;;;;;5023509;28;20061;-54
2023/08/31 08:07:11;;;;;;;14.93;7.00;;;25.80;56.20;;;;;;5026562;28;20037;-51
2023/08/31 08:09:37;;;;;;;9.40;6.40;;;25.80;56.20;;;;;;5022858;28;20035;-54
2023/08/31 08:12:03;;;;;;;11.98;6.70;;;25.80;56.10;;;;;;5027922;28;20050;-53
2023/08/31 08:14:29;;;;;;;9.75;6.53;;;25.90;56.20;;;;;;5025966;28;20114;-52
2023/08/31 08:16:55;;;;;;;8.60;6.65;;;25.90;56.50;;;;;;5029225;28;20113;-53
2023/08/31 08:19:24;;;;;;;12.82;7.13;;;25.90;56.50;;;;;;5025852;28;20042;-52
2023/08/31 08:21:53;;;;;;;7.97;6.25;;;25.90;56.70;;;;;;5025333;28;20048;-53
2023/08/31 08:24:19;;;;;;;10.10;6.65;;;25.90;56.70;;;;;;5023872;28;20052;-52
2023/08/31 08:26:44;;;;;;;9.90;6.72;;;25.90;57.00;;;;;;5025161;28;20026;-52
2023/08/31 08:29:10;;;;;;;10.85;6.05;;;25.90;57.20;;;;;;5024993;28;20057;-50
2023/08/31 08:31:36;;;;;;;9.23;6.15;;;26.00;57.10;;;;;;5023606;28;20032;-54
2023/08/31 08:34:03;;;;;;;8.85;6.13;;;26.00;57.10;;;;;;5024894;28;20034;-54
2023/08/31 08:36:29;;;;;;;6.80;5.85;;;26.00;56.90;;;;;;5027205;28;20053;-54
2023/08/31 08:38:54;;;;;;;10.52;6.72;;;26.00;57.10;;;;;;5022144;28;20023;-51
2023/08/31 08:41:23;;;;;;;9.43;6.15;;;26.00;57.20;;;;;;5027686;28;20037;-50
2023/08/31 08:43:51;;;;;;;10.32;6.30;;;26.10;57.40;;;;;;5023899;28;20030;-52
2023/08/31 08:46:17;;;;;;;9.10;6.28;;;26.10;57.90;;;;;;5021509;28;20117;-51
2023/08/31 08:48:44;;;;;;;11.80;6.20;;;26.10;57.90;;;;;;5022829;28;20030;-53
2023/08/31 08:51:11;;;;;;;8.00;6.00;;;26.10;57.90;;;;;;5025833;28;20034;-52
2023/08/31 08:53:38;;;;;;;9.20;5.93;;;26.10;58.00;;;;;;5022488;28;20089;-54
2023/08/31 08:56:04;;;;;;;11.15;5.97;;;26.20;58.00;;;;;;5026004;28;20026;-52
2023/08/31 08:58:30;;;;;;;11.93;6.25;;;26.20;58.10;;;;;;5024065;28;20030;-53
2023/08/31 09:00:58;;;;;;;8.45;6.28;;;26.20;58.60;;;;;;5024340;28;20072;-51
2023/08/31 09:03:24;;;;;;;10.90;6.13;;;26.20;58.90;;;;;;5028265;28;20041;-54
2023/08/31 09:05:53;;;;;;;12.10;6.32;;;26.20;58.70;;;;;;5029722;28;20664;-53
2023/08/31 09:08:26;;;;;;;13.05;6.15;;;26.20;59.00;;;;;;5031476;28;20034;-52
2023/08/31 09:10:51;;;;;;;13.88;5.97;;;26.30;59.50;;;;;;5031662;28;20022;-54
2023/08/31 09:13:17;;;;;;;8.10;5.88;;;26.30;59.70;;;;;;5030065;28;20037;-53
2023/08/31 09:15:47;;;;;;;10.32;6.13;;;26.30;59.90;;;;;;5026087;28;20053;-53
2023/08/31 09:18:26;;;;;;;13.52;6.15;;;26.30;60.20;;;;;;5025081;28;20098;-51
2023/08/31 09:20:53;;;;;;;8.15;5.72;;;26.30;60.10;;;;;;5017269;28;20038;-53
2023/08/31 09:23:20;;;;;;;9.20;5.80;;;26.30;60.50;;;;;;5024304;28;20034;-53
2023/08/31 09:25:50;;;;;;;8.82;6.00;;;26.40;60.80;;;;;;5027546;28;21086;-51
2023/08/31 09:28:19;;;;;;;8.00;6.10;;;26.40;61.10;;;;;;5024807;28;20042;-52
2023/08/31 09:30:47;;;;;;;12.15;6.32;;;26.40;61.20;;;;;;5022836;28;20159;-53
2023/08/31 09:33:20;;;;;;;9.50;6.25;;;26.40;61.20;;;;;;5028931;28;20041;-53
2023/08/31 09:35:51;;;;;;;12.02;6.13;;;26.40;61.10;;;;;;5032006;28;20014;-52
2023/08/31 09:38:17;;;;;;;7.65;5.80;;;26.40;61.00;;;;;;5031753;28;20046;-54
2023/08/31 09:40:43;;;;;;;9.20;6.05;;;26.40;61.30;;;;;;5029738;28;20037;-53
2023/08/31 09:43:09;;;;;;;10.73;5.70;;;26.40;61.30;;;;;;5032072;28;20082;-51
2023/08/31 09:45:35;;;;;;;11.50;6.38;;;26.30;61.30;;;;;;5032039;28;20002;-54
2023/08/31 09:48:02;;;;;;;12.38;6.03;;;26.30;61.70;;;;;;5027787;28;20030;-51
2023/08/31 09:50:33;;;;;;;8.68;6.53;;;26.30;61.70;;;;;;5027939;28;20021;-53
2023/08/31 09:53:05;;;;;;;13.30;6.05;;;26.30;61.50;;;;;;5026855;28;20026;-54
2023/08/31 09:55:35;;;;;;;9.55;6.65;;;26.20;61.50;;;;;;5033298;28;20038;-52
2023/08/31 09:58:04;;;;;;;9.10;6.20;;;26.20;61.90;;;;;;5029161;28;20014;-55
2023/08/31 10:00:31;;;;;;;10.43;6.85;;;26.10;62.60;;;;;;5025717;28;20093;-51
2023/08/31 10:03:00;;;;;;;8.30;6.10;;;26.10;63.20;;;;;;5028768;28;20022;-56
2023/08/31 10:05:26;;;;;;;11.20;6.82;;;26.00;64.50;;;;;;5028434;28;20010;-54
2023/08/31 10:07:52;;;;;;;7.18;5.38;;;26.00;64.60;;;;;;5028871;28;20356;-54
2023/08/31 10:10:19;;;;;;;9.05;5.70;;;26.00;65.50;;;;;;5031280;28;20034;-54
2023/08/31 10:12:46;;;;;;;9.30;5.50;;;26.00;66.30;;;;;;5031225;28;20017;-53
2023/08/31 10:15:13;;;;;;;11.18;6.20;;;26.00;66.10;;;;;;5030125;28;20085;-53
2023/08/31 10:17:40;;;;;;;9.32;7.15;;;26.00;66.50;;;;;;5031246;28;20033;-51
2023/08/31 10:20:11;;;;;;;8.90;6.78;;;26.00;66.80;;;;;;5022725;28;20045;-53
2023/08/31 10:22:37;;;;;;;;;;;26.00;67.20;;;;;;5025981;28;20086;-54
2023/08/31 10:25:07;;;;;;;14.30;9.02;;;25.90;67.00;;;;;;5032776;28;19917;-50
2023/08/31 10:27:45;;;;;;;9.93;7.07;;;25.90;67.20;;;;;;5032556;28;20141;-54
2023/08/31 10:30:23;;;;;;;10.88;6.35;;;26.00;67.40;;;;;;5032929;28;20006;-53
2023/08/31 10:33:07;;;;;;;10.75;6.80;;;26.00;67.70;;;;;;5033321;28;20037;-53
2023/08/31 10:35:48;;;;;;;8.70;6.15;;;26.00;67.80;;;;;;5031259;28;20057;-54
2023/08/31 10:38:15;;;;;;;7.90;5.78;;;26.00;67.90;;;;;;5026600;28;20045;-54
2023/08/31 10:40:41;;;;;;;7.32;4.68;;;26.00;67.80;;;;;;5030246;28;20041;-51
2023/08/31 10:43:16;;;;;;;7.93;4.50;;;26.00;67.90;;;;;;5029675;28;20030;-53
2023/08/31 10:45:45;;;;;;;7.72;4.00;;;26.00;67.70;;;;;;5031798;28;20002;-54
2023/08/31 10:48:11;;;;;;;7.35;4.22;;;26.00;67.40;;;;;;5027866;28;20041;-54
2023/08/31 10:50:47;;;;;;;10.23;4.68;;;26.00;67.80;;;;;;5028828;28;20034;-53
2023/08/31 10:53:13;;;;;;;7.45;3.88;;;26.00;67.80;;;;;;5032123;28;20026;-53
2023/08/31 10:55:52;;;;;;;8.85;4.80;;;26.00;67.90;;;;;;5033565;28;20022;-52
2023/08/31 10:58:18;;;;;;;6.90;4.28;;;26.00;68.10;;;;;;5030108;28;20049;-54
2023/08/31 11:00:51;;;;;;;6.47;4.07;;;26.00;68.30;;;;;;5033086;28;20082;-53
2023/08/31 11:03:17;;;;;;;9.93;4.72;;;26.00;68.50;;;;;;5029229;28;20045;-53
2023/08/31 11:05:52;;;;;;;8.57;4.38;;;26.00;68.40;;;;;;5027158;28;20038;-51
2023/08/31 11:08:23;;;;;;;6.65;4.15;;;26.00;68.60;;;;;;5024656;28;20026;-54
2023/08/31 11:10:49;;;;;;;6.03;3.95;;;26.00;69.00;;;;;;5029530;28;20017;-53
2023/08/31 11:13:22;;;;;;;7.38;4.28;;;26.00;69.50;;;;;;5031276;28;20373;-51
2023/08/31 11:15:49;;;;;;;6.43;4.00;;;26.10;69.60;;;;;;5034113;28;20078;-55
2023/08/31 11:18:17;;;;;;;9.90;4.35;;;26.10;69.50;;;;;;5031584;28;20037;-52
2023/08/31 11:20:43;;;;;;;7.25;3.95;;;26.20;70.00;;;;;;5033963;28;20061;-53
2023/08/31 11:23:10;;;;;;;6.18;3.40;;;26.20;69.80;;;;;;5032130;28;20026;-54
2023/08/31 11:25:36;;;;;;;7.53;3.63;;;26.20;69.60;;;;;;5037604;28;20026;-52
2023/08/31 11:28:09;;;;;;;7.55;4.18;;;26.20;70.40;;;;;;5026143;28;20050;-53
2023/08/31 11:30:36;;;;;;;7.95;3.67;;;26.20;69.60;;;;;;5032016;28;20034;-53
2023/08/31 11:33:11;;;;;;;10.70;4.15;;;26.20;69.90;;;;;;5031816;28;20063;-54
2023/08/31 11:35:40;;;;;;;7.45;4.30;;;26.20;69.70;;;;;;5029720;28;20022;-52
2023/08/31 11:38:06;;;;;;;10.63;4.45;;;26.20;69.70;;;;;;5033886;28;20022;-54
2023/08/31 11:40:32;;;;;;;7.65;4.88;;;26.20;69.70;;;;;;5031944;28;20037;-55
2023/08/31 11:43:00;;;;;;;9.77;4.85;;;26.30;69.00;;;;;;5030205;28;20030;-52
2023/08/31 11:45:26;;;;;;;12.15;4.95;;;26.30;69.40;;;;;;5034070;28;20037;-51
2023/08/31 11:47:53;;;;;;;7.82;4.90;;;26.40;69.00;;;;;;5034066;28;20101;-53
2023/08/31 11:50:20;;;;;;;8.93;4.55;;;26.40;68.40;;;;;;5031745;28;20045;-54
2023/08/31 11:52:46;;;;;;;10.13;4.57;;;26.40;68.30;;;;;;5032388;28;20033;-53
2023/08/31 11:55:17;;;;;;;10.68;4.85;;;26.50;68.20;;;;;;5029972;28;20041;-54
2023/08/31 11:57:56;;;;;;;13.02;5.35;;;26.60;67.80;;;;;;5028816;28;20106;-52
2023/08/31 12:00:23;;;;;;;7.35;4.50;;;26.60;67.80;;;;;;5027127;28;20030;-54
2023/08/31 12:03:01;;;;;;;11.30;5.35;;;26.70;67.50;;;;;;5026393;28;20096;-54
2023/08/31 12:05:28;;;;;;;11.57;5.07;;;26.80;67.60;;;;;;5033346;28;20151;-54
2023/08/31 12:07:54;;;;;;;7.47;4.72;;;26.70;67.30;;;;;;5028307;28;20237;-53
2023/08/31 12:10:20;;;;;;;11.82;4.93;;;26.80;66.70;;;;;;5028599;28;20033;-54
2023/08/31 12:12:46;;;;;;;10.15;4.82;;;26.80;66.60;;;;;;5030666;28;20036;-53
2023/08/31 12:15:11;;;;;;;8.23;5.05;;;26.90;66.20;;;;;;5032498;28;20034;-53
2023/08/31 12:17:39;;;;;;;7.22;5.13;;;26.90;65.80;;;;;;5032064;28;20018;-53
2023/08/31 12:20:06;;;;;;;8.32;5.22;;;26.90;65.80;;;;;;5032440;28;20045;-54
2023/08/31 12:22:32;;;;;;;6.13;4.35;;;26.90;65.80;;;;;;5035396;28;20578;-54
2023/08/31 12:24:58;;;;;;;8.60;5.25;;;27.00;65.90;;;;;;5029959;28;20038;-54
2023/08/31 12:27:23;;;;;;;9.70;5.28;;;27.00;65.70;;;;;;5035866;28;20096;-52
2023/08/31 12:29:50;;;;;;;12.30;5.35;;;27.10;65.20;;;;;;5025873;28;20033;-54
2023/08/31 12:32:17;;;;;;;9.90;5.30;;;27.10;64.70;;;;;;5026131;28;20057;-54
2023/08/31 12:34:43;;;;;;;8.20;4.93;;;27.10;65.10;;;;;;5026784;28;20018;-55
2023/08/31 12:37:09;;;;;;;7.82;5.40;;;27.20;65.70;;;;;;5030238;28;20102;-52
2023/08/31 12:39:34;;;;;;;8.80;5.47;;;27.30;65.90;;;;;;5028254;28;20036;-53
2023/08/31 12:42:00;;;;;;;8.98;5.70;;;27.30;65.50;;;;;;5033508;28;20044;-54
2023/08/31 12:44:26;;;;;;;12.25;5.00;;;27.40;65.30;;;;;;5025605;28;20034;-54